sensor_id;sensor_type;location;lat;lon;timestamp;P1;durP1;ratioP1;P2;durP2;ratioP2
46941;SDS011;32676;52.630;4.896;2023-06-10T00:01:22;8.45;;;3.42;;
46941;SDS011;32676;52.630;4.896;2023-06-10T00:03:49;8.25;;;4.20;;
46941;SDS011;32676;52.630;4.896;2023-06-10T00:06:16;9.98;;;3.83;;
46941;SDS011;32676;52.630;4.896;2023-06-10T00:08:43;13.60;;;3.13;;
46941;SDS011;32676;52.630;4.896;2023-06-10T00:11:12;9.15;;;3.45;;
46941;SDS011;32676;52.630;4.896;2023-06-10T00:13:38;10.05;;;3.38;;
46941;SDS011;32676;52.630;4.896;2023-06-10T00:16:06;6.68;;;2.88;;
46941;SDS011;32676;52.630;4.896;2023-06-10T00:18:33;9.50;;;4.40;;
46941;SDS011;32676;52.630;4.896;2023-06-10T00:21:02;10.88;;;3.60;;
46941;SDS011;32676;52.630;4.896;2023-06-10T00:23:29;11.88;;;3.95;;
46941;SDS011;32676;52.630;4.896;2023-06-10T00:25:57;7.93;;;3.25;;
46941;SDS011;32676;52.630;4.896;2023-06-10T00:28:24;7.97;;;2.80;;
46941;SDS011;32676;52.630;4.896;2023-06-10T00:30:51;9.68;;;3.08;;
46941;SDS011;32676;52.630;4.896;2023-06-10T00:33:19;11.18;;;3.25;;
46941;SDS011;32676;52.630;4.896;2023-06-10T00:35:45;8.70;;;3.85;;
46941;SDS011;32676;52.630;4.896;2023-06-10T00:38:12;7.80;;;3.58;;
46941;SDS011;32676;52.630;4.896;2023-06-10T00:40:39;10.30;;;3.47;;
46941;SDS011;32676;52.630;4.896;2023-06-10T00:43:06;12.77;;;3.28;;
46941;SDS011;32676;52.630;4.896;2023-06-10T00:45:33;6.05;;;3.03;;
46941;SDS011;32676;52.630;4.896;2023-06-10T00:48:00;8.82;;;3.28;;
46941;SDS011;32676;52.630;4.896;2023-06-10T00:50:28;10.48;;;2.45;;
46941;SDS011;32676;52.630;4.896;2023-06-10T00:52:56;9.98;;;3.65;;
46941;SDS011;32676;52.630;4.896;2023-06-10T00:55:22;7.45;;;2.90;;
46941;SDS011;32676;52.630;4.896;2023-06-10T00:57:49;9.43;;;4.07;;
46941;SDS011;32676;52.630;4.896;2023-06-10T01:00:17;11.32;;;3.65;;
46941;SDS011;32676;52.630;4.896;2023-06-10T01:02:44;6.40;;;2.97;;
46941;SDS011;32676;52.630;4.896;2023-06-10T01:05:10;9.10;;;3.22;;
46941;SDS011;32676;52.630;4.896;2023-06-10T01:07:39;7.50;;;3.03;;
46941;SDS011;32676;52.630;4.896;2023-06-10T01:10:16;7.78;;;3.15;;
46941;SDS011;32676;52.630;4.896;2023-06-10T01:12:49;10.20;;;3.05;;
46941;SDS011;32676;52.630;4.896;2023-06-10T01:15:22;8.82;;;3.45;;
46941;SDS011;32676;52.630;4.896;2023-06-10T01:17:53;11.88;;;2.80;;
46941;SDS011;32676;52.630;4.896;2023-06-10T01:20:20;8.77;;;3.25;;
46941;SDS011;32676;52.630;4.896;2023-06-10T01:22:48;14.73;;;4.00;;
46941;SDS011;32676;52.630;4.896;2023-06-10T01:25:15;6.38;;;2.75;;
46941;SDS011;32676;52.630;4.896;2023-06-10T01:27:42;8.13;;;2.95;;
46941;SDS011;32676;52.630;4.896;2023-06-10T01:30:14;8.43;;;3.25;;
46941;SDS011;32676;52.630;4.896;2023-06-10T01:32:43;7.88;;;3.95;;
46941;SDS011;32676;52.630;4.896;2023-06-10T01:35:14;10.27;;;3.60;;
46941;SDS011;32676;52.630;4.896;2023-06-10T01:37:43;15.45;;;4.20;;
46941;SDS011;32676;52.630;4.896;2023-06-10T01:40:13;11.65;;;2.90;;
46941;SDS011;32676;52.630;4.896;2023-06-10T01:42:41;10.25;;;4.13;;
46941;SDS011;32676;52.630;4.896;2023-06-10T01:45:08;7.22;;;3.55;;
46941;SDS011;32676;52.630;4.896;2023-06-10T01:47:35;7.35;;;3.30;;
46941;SDS011;32676;52.630;4.896;2023-06-10T01:50:01;7.93;;;3.22;;
46941;SDS011;32676;52.630;4.896;2023-06-10T01:52:28;7.68;;;3.65;;
46941;SDS011;32676;52.630;4.896;2023-06-10T01:54:54;14.63;;;4.07;;
46941;SDS011;32676;52.630;4.896;2023-06-10T01:57:22;11.75;;;3.92;;
46941;SDS011;32676;52.630;4.896;2023-06-10T01:59:49;10.65;;;3.75;;
46941;SDS011;32676;52.630;4.896;2023-06-10T02:02:15;12.45;;;3.72;;
46941;SDS011;32676;52.630;4.896;2023-06-10T02:04:42;7.75;;;2.97;;
46941;SDS011;32676;52.630;4.896;2023-06-10T02:07:08;12.43;;;3.47;;
46941;SDS011;32676;52.630;4.896;2023-06-10T02:09:35;9.20;;;2.67;;
46941;SDS011;32676;52.630;4.896;2023-06-10T02:12:01;10.68;;;3.42;;
46941;SDS011;32676;52.630;4.896;2023-06-10T02:14:32;15.40;;;4.82;;
46941;SDS011;32676;52.630;4.896;2023-06-10T02:16:58;9.48;;;4.05;;
46941;SDS011;32676;52.630;4.896;2023-06-10T02:19:25;5.95;;;3.17;;
46941;SDS011;32676;52.630;4.896;2023-06-10T02:21:52;14.32;;;3.90;;
46941;SDS011;32676;52.630;4.896;2023-06-10T02:24:19;9.45;;;3.67;;
46941;SDS011;32676;52.630;4.896;2023-06-10T02:26:46;11.07;;;3.97;;
46941;SDS011;32676;52.630;4.896;2023-06-10T02:29:13;13.65;;;4.60;;
46941;SDS011;32676;52.630;4.896;2023-06-10T02:31:41;20.75;;;3.85;;
46941;SDS011;32676;52.630;4.896;2023-06-10T02:34:07;12.35;;;4.07;;
46941;SDS011;32676;52.630;4.896;2023-06-10T02:36:34;10.23;;;3.30;;
46941;SDS011;32676;52.630;4.896;2023-06-10T02:39:00;14.32;;;5.18;;
46941;SDS011;32676;52.630;4.896;2023-06-10T02:41:27;10.68;;;4.57;;
46941;SDS011;32676;52.630;4.896;2023-06-10T02:43:54;9.48;;;3.65;;
46941;SDS011;32676;52.630;4.896;2023-06-10T02:46:20;9.73;;;3.42;;
46941;SDS011;32676;52.630;4.896;2023-06-10T02:48:48;8.77;;;3.75;;
46941;SDS011;32676;52.630;4.896;2023-06-10T02:51:16;9.38;;;3.78;;
46941;SDS011;32676;52.630;4.896;2023-06-10T02:53:43;12.35;;;4.13;;
46941;SDS011;32676;52.630;4.896;2023-06-10T02:56:09;9.88;;;3.83;;
46941;SDS011;32676;52.630;4.896;2023-06-10T02:58:37;10.60;;;4.00;;
46941;SDS011;32676;52.630;4.896;2023-06-10T03:01:04;11.13;;;3.78;;
46941;SDS011;32676;52.630;4.896;2023-06-10T03:03:30;10.35;;;4.00;;
46941;SDS011;32676;52.630;4.896;2023-06-10T03:06:00;6.70;;;3.05;;
46941;SDS011;32676;52.630;4.896;2023-06-10T03:08:27;10.40;;;3.50;;
46941;SDS011;32676;52.630;4.896;2023-06-10T03:10:54;16.17;;;4.45;;
46941;SDS011;32676;52.630;4.896;2023-06-10T03:13:20;22.17;;;4.28;;
46941;SDS011;32676;52.630;4.896;2023-06-10T03:15:47;9.77;;;4.05;;
46941;SDS011;32676;52.630;4.896;2023-06-10T03:18:13;10.60;;;4.85;;
46941;SDS011;32676;52.630;4.896;2023-06-10T03:20:40;12.60;;;4.70;;
46941;SDS011;32676;52.630;4.896;2023-06-10T03:23:08;11.45;;;4.45;;
46941;SDS011;32676;52.630;4.896;2023-06-10T03:25:35;11.93;;;4.85;;
46941;SDS011;32676;52.630;4.896;2023-06-10T03:28:02;11.40;;;4.43;;
46941;SDS011;32676;52.630;4.896;2023-06-10T03:30:28;14.40;;;4.00;;
46941;SDS011;32676;52.630;4.896;2023-06-10T03:32:55;13.95;;;4.00;;
46941;SDS011;32676;52.630;4.896;2023-06-10T03:35:21;10.02;;;4.22;;
46941;SDS011;32676;52.630;4.896;2023-06-10T03:37:48;7.90;;;4.40;;
46941;SDS011;32676;52.630;4.896;2023-06-10T03:40:16;10.48;;;4.22;;
46941;SDS011;32676;52.630;4.896;2023-06-10T03:42:42;10.02;;;3.83;;
46941;SDS011;32676;52.630;4.896;2023-06-10T03:45:09;11.63;;;3.90;;
46941;SDS011;32676;52.630;4.896;2023-06-10T03:47:37;11.38;;;3.83;;
46941;SDS011;32676;52.630;4.896;2023-06-10T03:50:05;12.63;;;4.13;;
46941;SDS011;32676;52.630;4.896;2023-06-10T03:52:33;9.63;;;3.88;;
46941;SDS011;32676;52.630;4.896;2023-06-10T03:54:59;6.32;;;3.60;;
46941;SDS011;32676;52.630;4.896;2023-06-10T03:57:27;8.70;;;4.15;;
46941;SDS011;32676;52.630;4.896;2023-06-10T03:59:54;10.93;;;4.00;;
46941;SDS011;32676;52.630;4.896;2023-06-10T04:02:21;12.63;;;4.22;;
46941;SDS011;32676;52.630;4.896;2023-06-10T04:04:48;8.82;;;4.03;;
46941;SDS011;32676;52.630;4.896;2023-06-10T04:07:16;13.05;;;4.28;;
46941;SDS011;32676;52.630;4.896;2023-06-10T04:09:44;9.15;;;4.03;;
46941;SDS011;32676;52.630;4.896;2023-06-10T04:12:11;15.48;;;3.58;;
46941;SDS011;32676;52.630;4.896;2023-06-10T04:14:40;14.32;;;4.13;;
46941;SDS011;32676;52.630;4.896;2023-06-10T04:17:08;19.50;;;4.95;;
46941;SDS011;32676;52.630;4.896;2023-06-10T04:19:35;13.13;;;3.90;;
46941;SDS011;32676;52.630;4.896;2023-06-10T04:22:01;8.90;;;3.95;;
46941;SDS011;32676;52.630;4.896;2023-06-10T04:24:28;13.00;;;4.50;;
46941;SDS011;32676;52.630;4.896;2023-06-10T04:26:55;17.80;;;4.60;;
46941;SDS011;32676;52.630;4.896;2023-06-10T04:29:22;18.30;;;4.82;;
46941;SDS011;32676;52.630;4.896;2023-06-10T04:31:50;9.05;;;3.17;;
46941;SDS011;32676;52.630;4.896;2023-06-10T04:34:16;14.88;;;4.38;;
46941;SDS011;32676;52.630;4.896;2023-06-10T04:36:43;13.70;;;4.82;;
46941;SDS011;32676;52.630;4.896;2023-06-10T04:39:09;14.57;;;4.82;;
46941;SDS011;32676;52.630;4.896;2023-06-10T04:41:36;13.70;;;4.30;;
46941;SDS011;32676;52.630;4.896;2023-06-10T04:44:03;13.35;;;4.80;;
46941;SDS011;32676;52.630;4.896;2023-06-10T04:46:29;12.38;;;5.13;;
46941;SDS011;32676;52.630;4.896;2023-06-10T04:48:58;12.27;;;4.72;;
46941;SDS011;32676;52.630;4.896;2023-06-10T04:51:24;14.30;;;4.38;;
46941;SDS011;32676;52.630;4.896;2023-06-10T04:53:51;11.10;;;4.78;;
46941;SDS011;32676;52.630;4.896;2023-06-10T04:56:17;12.77;;;5.25;;
46941;SDS011;32676;52.630;4.896;2023-06-10T04:58:44;10.95;;;3.72;;
46941;SDS011;32676;52.630;4.896;2023-06-10T05:01:10;10.85;;;4.00;;
46941;SDS011;32676;52.630;4.896;2023-06-10T05:03:37;7.80;;;4.40;;
46941;SDS011;32676;52.630;4.896;2023-06-10T05:06:05;12.30;;;3.45;;
46941;SDS011;32676;52.630;4.896;2023-06-10T05:08:31;10.57;;;3.85;;
46941;SDS011;32676;52.630;4.896;2023-06-10T05:10:58;7.45;;;3.55;;
46941;SDS011;32676;52.630;4.896;2023-06-10T05:13:24;13.20;;;4.63;;
46941;SDS011;32676;52.630;4.896;2023-06-10T05:15:51;7.68;;;4.07;;
46941;SDS011;32676;52.630;4.896;2023-06-10T05:18:17;11.43;;;4.65;;
46941;SDS011;32676;52.630;4.896;2023-06-10T05:20:44;9.27;;;3.45;;
46941;SDS011;32676;52.630;4.896;2023-06-10T05:23:13;12.80;;;4.05;;
46941;SDS011;32676;52.630;4.896;2023-06-10T05:25:39;10.00;;;4.13;;
46941;SDS011;32676;52.630;4.896;2023-06-10T05:28:06;8.98;;;4.35;;
46941;SDS011;32676;52.630;4.896;2023-06-10T05:30:34;7.43;;;4.00;;
46941;SDS011;32676;52.630;4.896;2023-06-10T05:33:02;11.35;;;4.25;;
46941;SDS011;32676;52.630;4.896;2023-06-10T05:35:29;9.65;;;3.90;;
46941;SDS011;32676;52.630;4.896;2023-06-10T05:37:56;14.57;;;4.60;;
46941;SDS011;32676;52.630;4.896;2023-06-10T05:40:23;13.00;;;4.55;;
46941;SDS011;32676;52.630;4.896;2023-06-10T05:42:50;13.50;;;3.78;;
46941;SDS011;32676;52.630;4.896;2023-06-10T05:45:16;8.23;;;3.95;;
46941;SDS011;32676;52.630;4.896;2023-06-10T05:47:43;18.60;;;4.82;;
46941;SDS011;32676;52.630;4.896;2023-06-10T05:50:09;11.45;;;4.25;;
46941;SDS011;32676;52.630;4.896;2023-06-10T05:52:36;12.82;;;4.30;;
46941;SDS011;32676;52.630;4.896;2023-06-10T05:55:05;10.57;;;3.78;;
46941;SDS011;32676;52.630;4.896;2023-06-10T05:57:33;12.27;;;4.53;;
46941;SDS011;32676;52.630;4.896;2023-06-10T06:00:00;9.93;;;4.22;;
46941;SDS011;32676;52.630;4.896;2023-06-10T06:02:27;14.65;;;3.65;;
46941;SDS011;32676;52.630;4.896;2023-06-10T06:04:53;8.10;;;4.00;;
46941;SDS011;32676;52.630;4.896;2023-06-10T06:07:19;10.13;;;3.45;;
46941;SDS011;32676;52.630;4.896;2023-06-10T06:09:46;10.60;;;4.20;;
46941;SDS011;32676;52.630;4.896;2023-06-10T06:12:13;10.25;;;3.85;;
46941;SDS011;32676;52.630;4.896;2023-06-10T06:14:42;11.35;;;3.75;;
46941;SDS011;32676;52.630;4.896;2023-06-10T06:17:10;12.38;;;4.80;;
46941;SDS011;32676;52.630;4.896;2023-06-10T06:19:36;11.32;;;3.67;;
46941;SDS011;32676;52.630;4.896;2023-06-10T06:22:03;7.47;;;4.35;;
46941;SDS011;32676;52.630;4.896;2023-06-10T06:24:30;10.80;;;3.80;;
46941;SDS011;32676;52.630;4.896;2023-06-10T06:26:56;16.05;;;4.15;;
46941;SDS011;32676;52.630;4.896;2023-06-10T06:29:23;10.73;;;4.22;;
46941;SDS011;32676;52.630;4.896;2023-06-10T06:31:51;9.98;;;3.75;;
46941;SDS011;32676;52.630;4.896;2023-06-10T06:34:17;12.60;;;4.75;;
46941;SDS011;32676;52.630;4.896;2023-06-10T06:36:44;10.35;;;3.95;;
46941;SDS011;32676;52.630;4.896;2023-06-10T06:39:11;13.75;;;4.28;;
46941;SDS011;32676;52.630;4.896;2023-06-10T06:41:38;10.52;;;3.58;;
46941;SDS011;32676;52.630;4.896;2023-06-10T06:44:04;6.80;;;3.22;;
46941;SDS011;32676;52.630;4.896;2023-06-10T06:46:31;7.82;;;3.97;;
46941;SDS011;32676;52.630;4.896;2023-06-10T06:48:58;10.10;;;3.90;;
46941;SDS011;32676;52.630;4.896;2023-06-10T06:51:25;7.35;;;3.30;;
46941;SDS011;32676;52.630;4.896;2023-06-10T06:53:52;12.15;;;3.75;;
46941;SDS011;32676;52.630;4.896;2023-06-10T06:56:21;11.07;;;3.40;;
46941;SDS011;32676;52.630;4.896;2023-06-10T06:58:48;9.10;;;3.85;;
46941;SDS011;32676;52.630;4.896;2023-06-10T07:01:14;10.85;;;3.47;;
46941;SDS011;32676;52.630;4.896;2023-06-10T07:03:41;14.75;;;3.83;;
46941;SDS011;32676;52.630;4.896;2023-06-10T07:06:09;12.63;;;3.88;;
46941;SDS011;32676;52.630;4.896;2023-06-10T07:08:35;10.15;;;3.10;;
46941;SDS011;32676;52.630;4.896;2023-06-10T07:11:02;10.25;;;3.85;;
46941;SDS011;32676;52.630;4.896;2023-06-10T07:13:28;9.65;;;3.55;;
46941;SDS011;32676;52.630;4.896;2023-06-10T07:15:55;8.27;;;3.38;;
46941;SDS011;32676;52.630;4.896;2023-06-10T07:18:21;6.85;;;3.05;;
46941;SDS011;32676;52.630;4.896;2023-06-10T07:20:48;8.27;;;3.13;;
46941;SDS011;32676;52.630;4.896;2023-06-10T07:23:16;9.82;;;3.00;;
46941;SDS011;32676;52.630;4.896;2023-06-10T07:25:42;9.38;;;3.58;;
46941;SDS011;32676;52.630;4.896;2023-06-10T07:28:09;14.85;;;3.55;;
46941;SDS011;32676;52.630;4.896;2023-06-10T07:30:35;11.93;;;3.10;;
46941;SDS011;32676;52.630;4.896;2023-06-10T07:33:02;6.53;;;2.60;;
46941;SDS011;32676;52.630;4.896;2023-06-10T07:35:30;6.82;;;3.00;;
46941;SDS011;32676;52.630;4.896;2023-06-10T07:37:57;6.90;;;3.33;;
46941;SDS011;32676;52.630;4.896;2023-06-10T07:40:25;7.30;;;3.00;;
46941;SDS011;32676;52.630;4.896;2023-06-10T07:42:52;6.72;;;3.05;;
46941;SDS011;32676;52.630;4.896;2023-06-10T07:45:19;9.48;;;3.60;;
46941;SDS011;32676;52.630;4.896;2023-06-10T07:47:45;10.70;;;3.70;;
46941;SDS011;32676;52.630;4.896;2023-06-10T07:50:12;8.05;;;3.17;;
46941;SDS011;32676;52.630;4.896;2023-06-10T07:52:38;10.48;;;3.28;;
46941;SDS011;32676;52.630;4.896;2023-06-10T07:55:05;12.45;;;2.80;;
46941;SDS011;32676;52.630;4.896;2023-06-10T07:57:34;7.93;;;2.63;;
46941;SDS011;32676;52.630;4.896;2023-06-10T08:00:01;10.63;;;2.90;;
46941;SDS011;32676;52.630;4.896;2023-06-10T08:02:29;14.23;;;3.88;;
46941;SDS011;32676;52.630;4.896;2023-06-10T08:04:57;10.63;;;3.15;;
46941;SDS011;32676;52.630;4.896;2023-06-10T08:07:23;7.22;;;3.58;;
46941;SDS011;32676;52.630;4.896;2023-06-10T08:09:50;8.48;;;3.00;;
46941;SDS011;32676;52.630;4.896;2023-06-10T08:12:17;8.95;;;3.33;;
46941;SDS011;32676;52.630;4.896;2023-06-10T08:14:45;9.13;;;2.83;;
46941;SDS011;32676;52.630;4.896;2023-06-10T08:17:11;7.75;;;2.70;;
46941;SDS011;32676;52.630;4.896;2023-06-10T08:19:38;8.02;;;2.78;;
46941;SDS011;32676;52.630;4.896;2023-06-10T08:22:07;9.43;;;2.58;;
46941;SDS011;32676;52.630;4.896;2023-06-10T08:24:34;10.45;;;3.28;;
46941;SDS011;32676;52.630;4.896;2023-06-10T08:27:01;8.15;;;3.22;;
46941;SDS011;32676;52.630;4.896;2023-06-10T08:29:28;11.25;;;3.17;;
46941;SDS011;32676;52.630;4.896;2023-06-10T08:31:57;8.43;;;3.33;;
46941;SDS011;32676;52.630;4.896;2023-06-10T08:34:24;13.30;;;3.92;;
46941;SDS011;32676;52.630;4.896;2023-06-10T08:36:51;8.27;;;3.15;;
46941;SDS011;32676;52.630;4.896;2023-06-10T08:39:20;9.68;;;4.22;;
46941;SDS011;32676;52.630;4.896;2023-06-10T08:41:50;8.75;;;2.85;;
46941;SDS011;32676;52.630;4.896;2023-06-10T08:44:26;9.32;;;2.88;;
46941;SDS011;32676;52.630;4.896;2023-06-10T08:46:55;9.05;;;2.78;;
46941;SDS011;32676;52.630;4.896;2023-06-10T08:49:25;13.88;;;3.38;;
46941;SDS011;32676;52.630;4.896;2023-06-10T08:51:55;10.57;;;3.25;;
46941;SDS011;32676;52.630;4.896;2023-06-10T08:54:25;7.03;;;3.13;;
46941;SDS011;32676;52.630;4.896;2023-06-10T08:56:56;6.53;;;2.95;;
46941;SDS011;32676;52.630;4.896;2023-06-10T08:59:25;6.72;;;3.22;;
46941;SDS011;32676;52.630;4.896;2023-06-10T09:01:52;8.88;;;2.85;;
46941;SDS011;32676;52.630;4.896;2023-06-10T09:04:21;6.53;;;3.38;;
46941;SDS011;32676;52.630;4.896;2023-06-10T09:06:50;7.35;;;3.22;;
46941;SDS011;32676;52.630;4.896;2023-06-10T09:09:18;7.13;;;2.58;;
46941;SDS011;32676;52.630;4.896;2023-06-10T09:11:45;8.23;;;3.05;;
46941;SDS011;32676;52.630;4.896;2023-06-10T09:14:12;6.10;;;2.58;;
46941;SDS011;32676;52.630;4.896;2023-06-10T09:16:38;7.15;;;3.22;;
46941;SDS011;32676;52.630;4.896;2023-06-10T09:19:06;9.50;;;3.03;;
46941;SDS011;32676;52.630;4.896;2023-06-10T09:21:35;5.75;;;2.78;;
46941;SDS011;32676;52.630;4.896;2023-06-10T09:24:02;6.45;;;3.58;;
46941;SDS011;32676;52.630;4.896;2023-06-10T09:26:28;15.35;;;3.63;;
46941;SDS011;32676;52.630;4.896;2023-06-10T09:28:57;5.65;;;2.33;;
46941;SDS011;32676;52.630;4.896;2023-06-10T09:31:29;8.75;;;2.72;;
46941;SDS011;32676;52.630;4.896;2023-06-10T09:34:04;7.30;;;3.22;;
46941;SDS011;32676;52.630;4.896;2023-06-10T09:36:32;10.13;;;3.17;;
46941;SDS011;32676;52.630;4.896;2023-06-10T09:39:00;3.40;;;1.92;;
46941;SDS011;32676;52.630;4.896;2023-06-10T09:41:31;9.80;;;3.42;;
46941;SDS011;32676;52.630;4.896;2023-06-10T09:43:58;9.93;;;4.03;;
46941;SDS011;32676;52.630;4.896;2023-06-10T09:46:25;8.38;;;3.08;;
46941;SDS011;32676;52.630;4.896;2023-06-10T09:48:57;8.38;;;3.50;;
46941;SDS011;32676;52.630;4.896;2023-06-10T09:51:24;8.68;;;3.05;;
46941;SDS011;32676;52.630;4.896;2023-06-10T09:53:50;9.77;;;2.92;;
46941;SDS011;32676;52.630;4.896;2023-06-10T09:56:19;12.02;;;3.00;;
46941;SDS011;32676;52.630;4.896;2023-06-10T09:58:45;12.50;;;3.03;;
46941;SDS011;32676;52.630;4.896;2023-06-10T10:01:13;10.13;;;3.25;;
46941;SDS011;32676;52.630;4.896;2023-06-10T10:03:43;4.75;;;2.47;;
46941;SDS011;32676;52.630;4.896;2023-06-10T10:06:12;9.15;;;4.03;;
46941;SDS011;32676;52.630;4.896;2023-06-10T10:08:38;5.78;;;2.47;;
46941;SDS011;32676;52.630;4.896;2023-06-10T10:11:05;7.97;;;2.63;;
46941;SDS011;32676;52.630;4.896;2023-06-10T10:13:33;10.25;;;2.92;;
46941;SDS011;32676;52.630;4.896;2023-06-10T10:16:01;12.82;;;2.13;;
46941;SDS011;32676;52.630;4.896;2023-06-10T10:18:32;6.90;;;2.47;;
46941;SDS011;32676;52.630;4.896;2023-06-10T10:21:11;4.88;;;2.60;;
46941;SDS011;32676;52.630;4.896;2023-06-10T10:23:39;7.75;;;2.83;;
46941;SDS011;32676;52.630;4.896;2023-06-10T10:26:10;8.57;;;2.40;;
46941;SDS011;32676;52.630;4.896;2023-06-10T10:28:40;7.90;;;2.72;;
46941;SDS011;32676;52.630;4.896;2023-06-10T10:31:11;9.52;;;2.72;;
46941;SDS011;32676;52.630;4.896;2023-06-10T10:33:46;6.97;;;2.58;;
46941;SDS011;32676;52.630;4.896;2023-06-10T10:36:19;15.52;;;3.15;;
46941;SDS011;32676;52.630;4.896;2023-06-10T10:38:45;6.97;;;2.47;;
46941;SDS011;32676;52.630;4.896;2023-06-10T10:41:14;8.70;;;3.20;;
46941;SDS011;32676;52.630;4.896;2023-06-10T10:43:42;4.93;;;2.53;;
46941;SDS011;32676;52.630;4.896;2023-06-10T10:46:11;9.15;;;2.70;;
46941;SDS011;32676;52.630;4.896;2023-06-10T10:48:39;6.72;;;2.65;;
46941;SDS011;32676;52.630;4.896;2023-06-10T10:51:06;7.40;;;2.63;;
46941;SDS011;32676;52.630;4.896;2023-06-10T10:53:33;8.20;;;2.50;;
46941;SDS011;32676;52.630;4.896;2023-06-10T10:56:00;9.57;;;3.15;;
46941;SDS011;32676;52.630;4.896;2023-06-10T10:58:31;11.52;;;2.17;;
46941;SDS011;32676;52.630;4.896;2023-06-10T11:00:59;6.43;;;2.72;;
46941;SDS011;32676;52.630;4.896;2023-06-10T11:03:27;9.55;;;2.47;;
46941;SDS011;32676;52.630;4.896;2023-06-10T11:05:56;7.85;;;2.83;;
46941;SDS011;32676;52.630;4.896;2023-06-10T11:11:18;7.55;;;3.22;;
46941;SDS011;32676;52.630;4.896;2023-06-10T11:13:57;6.75;;;2.22;;
46941;SDS011;32676;52.630;4.896;2023-06-10T11:16:27;14.50;;;3.25;;
46941;SDS011;32676;52.630;4.896;2023-06-10T11:18:54;8.38;;;2.90;;
46941;SDS011;32676;52.630;4.896;2023-06-10T11:21:23;4.55;;;2.67;;
46941;SDS011;32676;52.630;4.896;2023-06-10T11:23:50;7.25;;;1.88;;
46941;SDS011;32676;52.630;4.896;2023-06-10T11:26:18;14.70;;;2.60;;
46941;SDS011;32676;52.630;4.896;2023-06-10T11:29:03;6.95;;;3.00;;
46941;SDS011;32676;52.630;4.896;2023-06-10T11:31:35;7.20;;;2.13;;
46941;SDS011;32676;52.630;4.896;2023-06-10T11:34:05;9.70;;;2.50;;
46941;SDS011;32676;52.630;4.896;2023-06-10T11:36:33;5.05;;;2.03;;
46941;SDS011;32676;52.630;4.896;2023-06-10T11:39:02;6.80;;;2.28;;
46941;SDS011;32676;52.630;4.896;2023-06-10T11:41:31;9.48;;;2.28;;
46941;SDS011;32676;52.630;4.896;2023-06-10T11:44:00;7.25;;;2.25;;
46941;SDS011;32676;52.630;4.896;2023-06-10T11:46:28;8.25;;;2.63;;
46941;SDS011;32676;52.630;4.896;2023-06-10T11:48:57;5.93;;;2.38;;
46941;SDS011;32676;52.630;4.896;2023-06-10T11:51:25;12.20;;;2.70;;
46941;SDS011;32676;52.630;4.896;2023-06-10T11:53:52;5.75;;;2.60;;
46941;SDS011;32676;52.630;4.896;2023-06-10T11:56:19;9.30;;;2.53;;
46941;SDS011;32676;52.630;4.896;2023-06-10T11:58:51;7.75;;;2.53;;
46941;SDS011;32676;52.630;4.896;2023-06-10T12:01:19;12.02;;;2.60;;
46941;SDS011;32676;52.630;4.896;2023-06-10T12:03:47;7.75;;;2.70;;
46941;SDS011;32676;52.630;4.896;2023-06-10T12:06:15;5.03;;;2.60;;
46941;SDS011;32676;52.630;4.896;2023-06-10T12:08:42;9.23;;;2.60;;
46941;SDS011;32676;52.630;4.896;2023-06-10T12:11:10;9.23;;;3.08;;
46941;SDS011;32676;52.630;4.896;2023-06-10T12:13:37;19.27;;;4.10;;
46941;SDS011;32676;52.630;4.896;2023-06-10T12:16:12;10.27;;;2.55;;
46941;SDS011;32676;52.630;4.896;2023-06-10T12:18:38;12.45;;;2.72;;
46941;SDS011;32676;52.630;4.896;2023-06-10T12:21:16;9.35;;;3.38;;
46941;SDS011;32676;52.630;4.896;2023-06-10T12:24:03;11.15;;;3.22;;
46941;SDS011;32676;52.630;4.896;2023-06-10T12:26:35;6.82;;;2.17;;
46941;SDS011;32676;52.630;4.896;2023-06-10T12:31:58;8.93;;;2.78;;
46941;SDS011;32676;52.630;4.896;2023-06-10T12:34:31;8.20;;;3.03;;
46941;SDS011;32676;52.630;4.896;2023-06-10T12:37:04;12.00;;;2.83;;
46941;SDS011;32676;52.630;4.896;2023-06-10T12:39:32;9.70;;;2.50;;
46941;SDS011;32676;52.630;4.896;2023-06-10T12:42:00;7.10;;;2.58;;
46941;SDS011;32676;52.630;4.896;2023-06-10T12:44:34;14.82;;;2.60;;
46941;SDS011;32676;52.630;4.896;2023-06-10T12:47:06;20.60;;;2.72;;
46941;SDS011;32676;52.630;4.896;2023-06-10T12:49:34;9.07;;;2.47;;
46941;SDS011;32676;52.630;4.896;2023-06-10T12:52:01;10.77;;;2.78;;
46941;SDS011;32676;52.630;4.896;2023-06-10T12:54:29;14.05;;;2.95;;
46941;SDS011;32676;52.630;4.896;2023-06-10T12:56:55;12.40;;;2.33;;
46941;SDS011;32676;52.630;4.896;2023-06-10T12:59:22;8.27;;;2.95;;
46941;SDS011;32676;52.630;4.896;2023-06-10T13:01:51;8.98;;;2.95;;
46941;SDS011;32676;52.630;4.896;2023-06-10T13:04:19;7.75;;;2.50;;
46941;SDS011;32676;52.630;4.896;2023-06-10T13:06:46;6.35;;;2.30;;
46941;SDS011;32676;52.630;4.896;2023-06-10T13:09:14;9.38;;;3.53;;
46941;SDS011;32676;52.630;4.896;2023-06-10T13:11:42;6.40;;;2.78;;
46941;SDS011;32676;52.630;4.896;2023-06-10T13:14:09;5.45;;;2.17;;
46941;SDS011;32676;52.630;4.896;2023-06-10T13:16:37;5.82;;;2.25;;
46941;SDS011;32676;52.630;4.896;2023-06-10T13:19:04;12.60;;;4.80;;
46941;SDS011;32676;52.630;4.896;2023-06-10T13:21:31;10.43;;;3.08;;
46941;SDS011;32676;52.630;4.896;2023-06-10T13:23:58;4.70;;;2.33;;
46941;SDS011;32676;52.630;4.896;2023-06-10T13:26:24;5.07;;;2.47;;
46941;SDS011;32676;52.630;4.896;2023-06-10T13:28:52;6.53;;;2.47;;
46941;SDS011;32676;52.630;4.896;2023-06-10T13:31:19;7.13;;;2.90;;
46941;SDS011;32676;52.630;4.896;2023-06-10T13:33:46;8.63;;;2.55;;
46941;SDS011;32676;52.630;4.896;2023-06-10T13:36:12;9.15;;;2.75;;
46941;SDS011;32676;52.630;4.896;2023-06-10T13:38:39;7.30;;;3.22;;
46941;SDS011;32676;52.630;4.896;2023-06-10T13:41:05;9.88;;;3.85;;
46941;SDS011;32676;52.630;4.896;2023-06-10T13:43:32;6.07;;;2.63;;
46941;SDS011;32676;52.630;4.896;2023-06-10T13:46:00;7.28;;;2.90;;
46941;SDS011;32676;52.630;4.896;2023-06-10T13:48:27;6.82;;;2.28;;
46941;SDS011;32676;52.630;4.896;2023-06-10T13:50:53;5.80;;;2.60;;
46941;SDS011;32676;52.630;4.896;2023-06-10T13:53:20;8.85;;;3.30;;
46941;SDS011;32676;52.630;4.896;2023-06-10T13:55:46;6.25;;;2.50;;
46941;SDS011;32676;52.630;4.896;2023-06-10T13:58:12;8.38;;;2.45;;
46941;SDS011;32676;52.630;4.896;2023-06-10T14:00:39;4.43;;;2.40;;
46941;SDS011;32676;52.630;4.896;2023-06-10T14:03:07;8.85;;;2.35;;
46941;SDS011;32676;52.630;4.896;2023-06-10T14:05:34;5.50;;;2.50;;
46941;SDS011;32676;52.630;4.896;2023-06-10T14:08:00;6.50;;;2.78;;
46941;SDS011;32676;52.630;4.896;2023-06-10T14:10:27;8.82;;;1.88;;
46941;SDS011;32676;52.630;4.896;2023-06-10T14:12:53;6.82;;;2.42;;
46941;SDS011;32676;52.630;4.896;2023-06-10T14:15:20;10.35;;;2.53;;
46941;SDS011;32676;52.630;4.896;2023-06-10T14:17:46;5.90;;;2.50;;
46941;SDS011;32676;52.630;4.896;2023-06-10T14:20:14;7.57;;;1.80;;
46941;SDS011;32676;52.630;4.896;2023-06-10T14:22:41;4.97;;;2.13;;
46941;SDS011;32676;52.630;4.896;2023-06-10T14:25:07;5.43;;;2.38;;
46941;SDS011;32676;52.630;4.896;2023-06-10T14:27:34;3.70;;;1.80;;
46941;SDS011;32676;52.630;4.896;2023-06-10T14:30:00;7.20;;;1.73;;
46941;SDS011;32676;52.630;4.896;2023-06-10T14:32:28;8.30;;;2.10;;
46941;SDS011;32676;52.630;4.896;2023-06-10T14:34:54;10.80;;;1.98;;
46941;SDS011;32676;52.630;4.896;2023-06-10T14:37:22;5.80;;;2.10;;
46941;SDS011;32676;52.630;4.896;2023-06-10T14:39:49;4.68;;;1.92;;
46941;SDS011;32676;52.630;4.896;2023-06-10T14:42:15;5.22;;;2.20;;
46941;SDS011;32676;52.630;4.896;2023-06-10T14:44:42;7.70;;;1.70;;
46941;SDS011;32676;52.630;4.896;2023-06-10T14:47:08;6.05;;;2.03;;
46941;SDS011;32676;52.630;4.896;2023-06-10T14:49:35;6.93;;;2.08;;
46941;SDS011;32676;52.630;4.896;2023-06-10T14:52:01;8.45;;;2.63;;